Time;durP1;ratioP1;P1;durP2;ratioP2;P2;SDS_P1;SDS_P2;PMS_P1;PMS_P2;Temp;Humidity;BMP_temperature;BMP_pressure;BME280_temperature;BME280_humidity;BME280_pressure;Samples;Min_cycle;Max_cycle;Signal;HPM_P1;HPM_P2
2022/08/24 00:02:21;;;;;;;7.28;5.00;;;;;;;17.69;75.25;94564.34;5105573;27;20046;-78
2022/08/24 00:04:47;;;;;;;7.30;5.32;;;;;;;17.66;75.51;94559.41;5096145;28;20027;-78
2022/08/24 00:07:12;;;;;;;6.68;5.40;;;;;;;17.66;75.34;94548.91;5078460;28;20043;-78
2022/08/24 00:09:37;;;;;;;6.93;5.43;;;;;;;17.82;75.09;94553.25;5086870;27;20085;-78
2022/08/24 00:12:03;;;;;;;7.10;5.68;;;;;;;17.82;75.42;94561.13;5114936;27;20031;-78
2022/08/24 00:14:29;;;;;;;6.60;5.93;;;;;;;17.62;75.06;94531.88;5095852;28;20026;-78
2022/08/24 00:16:56;;;;;;;7.57;6.07;;;;;;;17.77;75.16;94564.25;5102797;27;20027;-78
2022/08/24 00:19:22;;;;;;;7.00;5.20;;;;;;;17.77;75.13;94559.00;5098536;27;20026;-78
2022/08/24 00:21:47;;;;;;;6.07;4.97;;;;;;;17.78;74.97;94558.06;5095077;28;20040;-78
2022/08/24 00:24:13;;;;;;;9.07;5.30;;;;;;;17.82;74.88;94563.75;5115332;27;20031;-78
2022/08/24 00:26:39;;;;;;;8.68;5.47;;;;;;;17.72;74.43;94555.28;5115185;27;20023;-78
2022/08/24 00:29:04;;;;;;;7.60;5.43;;;;;;;17.83;74.61;94578.56;5115421;27;20514;-78
2022/08/24 00:31:30;;;;;;;6.05;5.35;;;;;;;17.78;74.84;94583.47;5126023;27;20508;-78
2022/08/24 00:33:55;;;;;;;9.68;5.63;;;;;;;17.68;74.93;94578.47;5124625;27;20110;-78
2022/08/24 00:36:22;;;;;;;8.00;5.70;;;;;;;17.56;74.90;94593.00;5119333;27;20026;-78
2022/08/24 00:38:48;;;;;;;8.55;6.05;;;;;;;17.59;75.19;94590.84;5114822;27;20166;-78
2022/08/24 00:41:14;;;;;;;7.50;5.65;;;;;;;17.58;74.97;94591.03;5090041;27;20036;-80
2022/08/24 00:43:42;;;;;;;7.50;5.70;;;;;;;17.47;74.94;94601.91;5100089;27;20103;-76
2022/08/24 00:46:44;;;;;;;9.25;5.72;;;;;;;17.44;75.13;94608.34;5099852;27;20019;-76
2022/08/24 00:49:18;;;;;;;9.38;6.03;;;;;;;17.48;74.99;94616.69;5042624;28;20092;-76
2022/08/24 00:52:06;;;;;;;10.50;5.63;;;;;;;17.40;75.32;94620.19;5095691;27;20042;-76
2022/08/24 00:54:35;;;;;;;8.07;5.65;;;;;;;17.40;75.44;94618.38;5043975;28;20429;-76
2022/08/24 00:57:02;;;;;;;8.15;5.72;;;;;;;17.38;75.36;94619.53;5093169;27;20080;-76
2022/08/24 00:59:37;;;;;;;6.60;5.47;;;;;;;17.40;75.43;94626.25;5095944;27;20031;-76
2022/08/24 01:02:06;;;;;;;10.25;5.80;;;;;;;17.35;75.83;94630.38;5103569;27;20096;-76
2022/08/24 01:04:38;;;;;;;10.23;5.78;;;;;;;17.34;76.25;94634.81;5093651;28;20030;-76
2022/08/24 01:07:03;;;;;;;9.27;6.43;;;;;;;17.37;76.57;94634.47;5074671;27;20039;-79
2022/08/24 01:09:29;;;;;;;8.25;6.88;;;;;;;17.41;76.84;94630.53;5111244;27;20026;-77
2022/08/24 01:11:55;;;;;;;8.25;5.70;;;;;;;17.39;76.53;94632.50;5123325;27;20045;-77
2022/08/24 01:14:21;;;;;;;8.50;6.60;;;;;;;17.43;76.60;94643.47;5112644;27;20102;-77
2022/08/24 01:19:44;;;;;;;8.25;6.20;;;;;;;17.46;76.81;94643.09;5114125;27;20027;-77
2022/08/24 01:22:24;;;;;;;10.25;6.50;;;;;;;17.45;77.35;94652.00;5113332;27;20035;-76
2022/08/24 01:24:59;;;;;;;9.50;7.20;;;;;;;17.33;77.42;94629.75;5129746;27;20027;-77
2022/08/24 01:27:25;;;;;;;11.48;7.15;;;;;;;17.45;77.56;94641.47;5119567;27;20114;-77
2022/08/24 01:29:50;;;;;;;9.40;6.00;;;;;;;17.52;77.55;94644.22;5097298;27;20110;-77
2022/08/24 01:32:18;;;;;;;9.98;6.55;;;;;;;17.53;77.63;94638.00;5122658;27;20039;-76
2022/08/24 01:34:43;;;;;;;9.07;6.20;;;;;;;17.62;77.42;94653.50;5080071;27;20019;-77
2022/08/24 01:37:09;;;;;;;7.70;5.93;;;;;;;17.59;77.47;94634.66;5101405;27;20042;-77
2022/08/24 01:39:37;;;;;;;6.60;5.90;;;;;;;17.65;77.59;94652.34;5078233;27;20027;-77
2022/08/24 01:42:03;;;;;;;11.73;7.00;;;;;;;17.71;77.85;94656.09;5109608;27;20030;-77
2022/08/24 01:44:33;;;;;;;11.65;7.53;;;;;;;17.67;78.41;94660.88;5131495;27;20019;-76
2022/08/24 01:46:59;;;;;;;12.68;9.90;;;;;;;17.71;78.70;94661.34;5131104;27;20041;-77
2022/08/24 01:49:29;;;;;;;14.15;10.52;;;;;;;17.67;78.96;94663.50;5129032;27;20023;-76
2022/08/24 01:51:54;;;;;;;15.63;11.73;;;;;;;17.59;79.21;94653.88;5114488;27;20481;-76
2022/08/24 01:54:20;;;;;;;14.90;10.27;;;;;;;17.63;79.55;94656.94;5094815;27;20033;-77
2022/08/24 01:56:45;;;;;;;16.02;11.65;;;;;;;17.66;79.71;94659.22;5101445;27;20042;-76
2022/08/24 01:59:14;;;;;;;17.90;13.50;;;;;;;17.63;79.83;94652.53;5122153;27;20020;-77
2022/08/24 02:01:41;;;;;;;20.23;12.60;;;;;;;17.64;79.94;94651.53;5113008;27;20066;-77
2022/08/24 02:04:07;;;;;;;19.88;13.88;;;;;;;17.68;79.77;94652.00;5095305;27;20046;-77
2022/08/24 02:06:33;;;;;;;19.35;14.32;;;;;;;17.65;79.56;94647.91;5110886;27;20527;-79
2022/08/24 02:08:58;;;;;;;21.90;14.55;;;;;;;17.65;79.73;94665.47;5094226;28;20027;-79
2022/08/24 02:11:24;;;;;;;22.77;15.68;;;;;;;17.64;79.98;94667.31;5095839;27;20400;-79
2022/08/24 02:13:49;;;;;;;20.33;15.55;;;;;;;17.65;80.09;94666.28;5095741;27;20019;-79
2022/08/24 02:16:15;;;;;;;20.38;14.10;;;;;;;17.59;80.17;94653.88;5117816;28;20053;-78
2022/08/24 02:18:41;;;;;;;19.08;14.18;;;;;;;17.73;80.23;94675.94;5106691;28;20455;-78
2022/08/24 02:21:09;;;;;;;22.92;15.50;;;;;;;17.72;79.78;94671.69;5075651;28;20035;-78
2022/08/24 02:23:36;;;;;;;18.58;13.98;;;;;;;17.83;79.39;94683.66;5096680;28;20024;-79
2022/08/24 02:26:03;;;;;;;20.92;14.65;;;;;;;17.88;78.99;94693.59;5091670;28;20059;-79
2022/08/24 02:28:28;;;;;;;22.70;15.50;;;;;;;17.80;78.77;94666.41;5093342;28;20167;-79
2022/08/24 02:30:54;;;;;;;20.98;15.25;;;;;;;17.95;78.48;94678.78;5095680;28;20035;-79
2022/08/24 02:33:20;;;;;;;19.52;15.00;;;;;;;17.96;77.93;94675.16;5113947;28;20043;-79
2022/08/24 02:35:45;;;;;;;20.27;13.30;;;;;;;17.94;77.70;94671.88;5114748;27;20556;-79
2022/08/24 02:38:11;;;;;;;18.98;13.57;;;;;;;17.94;77.53;94671.88;5117510;27;20046;-79
2022/08/24 02:40:36;;;;;;;19.73;13.63;;;;;;;17.89;77.23;94663.72;5100271;27;20068;-79
2022/08/24 02:43:02;;;;;;;19.70;14.45;;;;;;;18.01;77.28;94672.81;5100492;27;20038;-79
2022/08/24 02:45:27;;;;;;;25.23;14.55;;;;;;;17.92;77.35;94672.06;5101091;27;20516;-79
2022/08/24 02:47:53;;;;;;;19.02;13.50;;;;;;;17.83;77.44;94667.88;5135797;27;20433;-79
2022/08/24 02:50:18;;;;;;;17.80;12.23;;;;;;;17.81;77.38;94683.00;5098269;28;20031;-79
2022/08/24 02:52:44;;;;;;;14.10;9.88;;;;;;;17.73;77.05;94669.88;5096687;28;20063;-79
2022/08/24 02:55:12;;;;;;;20.30;11.95;;;;;;;17.82;76.49;94668.84;5117798;27;20031;-79
2022/08/24 02:57:37;;;;;;;15.07;10.32;;;;;;;17.83;76.37;94687.09;5100040;27;20039;-79
2022/08/24 03:00:07;;;;;;;16.13;10.93;;;;;;;17.73;76.58;94675.94;5116402;27;20051;-79
2022/08/24 03:02:32;;;;;;;13.85;10.50;;;;;;;17.71;76.52;94674.47;5134867;27;20026;-78
2022/08/24 03:04:57;;;;;;;16.00;10.95;;;;;;;17.84;76.30;94691.34;5117974;27;20026;-78
2022/08/24 03:07:23;;;;;;;14.65;10.77;;;;;;;17.76;76.33;94675.59;5099859;27;20035;-78
2022/08/24 03:09:48;;;;;;;14.88;11.15;;;;;;;17.76;76.42;94686.09;5135101;27;20019;-79
2022/08/24 03:12:14;;;;;;;14.20;10.68;;;;;;;17.72;76.45;94670.84;5116698;27;20168;-78
2022/08/24 03:14:40;;;;;;;14.45;11.18;;;;;;;17.83;76.25;94679.19;5082483;27;20461;-78
2022/08/24 03:17:06;;;;;;;17.08;11.23;;;;;;;17.85;76.06;94690.31;5133657;27;20031;-81
2022/08/24 03:19:32;;;;;;;15.80;11.82;;;;;;;17.88;75.63;94675.22;5134816;27;20023;-79
2022/08/24 03:21:58;;;;;;;14.38;10.95;;;;;;;17.91;75.87;94685.38;5120765;27;20039;-79
2022/08/24 03:24:23;;;;;;;18.30;10.73;;;;;;;17.60;75.85;94644.16;5134172;27;20035;-79
2022/08/24 03:26:49;;;;;;;16.05;11.15;;;;;;;17.53;76.31;94645.88;5133579;27;20039;-79
2022/08/24 03:29:14;;;;;;;15.80;10.07;;;;;;;17.77;76.66;94689.53;5134649;27;20030;-78
2022/08/24 03:31:40;;;;;;;12.30;9.43;;;;;;;17.55;76.77;94654.38;5118306;27;20071;-79
2022/08/24 03:34:05;;;;;;;13.75;10.23;;;;;;;17.50;76.73;94636.53;5134292;27;20481;-79
2022/08/24 03:36:31;;;;;;;12.15;9.75;;;;;;;17.81;76.98;94683.81;5134244;27;20015;-79
2022/08/24 03:38:57;;;;;;;11.95;9.73;;;;;;;17.83;77.01;94686.28;5134343;27;20408;-79
2022/08/24 03:41:22;;;;;;;13.27;10.98;;;;;;;17.58;77.12;94652.25;5098695;27;20121;-79
2022/08/24 03:43:48;;;;;;;13.18;10.25;;;;;;;17.69;77.02;94668.56;5134412;27;20062;-80
2022/08/24 03:46:16;;;;;;;11.43;10.10;;;;;;;17.72;76.93;94687.44;5117219;27;20031;-79
2022/08/24 03:48:43;;;;;;;12.95;10.27;;;;;;;17.47;77.04;94651.78;5099207;27;20493;-79
2022/08/24 03:51:16;;;;;;;13.52;9.95;;;;;;;17.46;77.55;94637.84;5116142;27;20623;-79
2022/08/24 03:53:42;;;;;;;14.63;9.82;;;;;;;17.57;77.25;94658.47;5132942;27;20046;-79
2022/08/24 03:56:07;;;;;;;11.65;9.70;;;;;;;17.56;77.23;94661.28;5114402;27;20019;-79
2022/08/24 03:58:35;;;;;;;11.38;9.30;;;;;;;17.69;77.19;94677.28;5114340;27;20433;-78
2022/08/24 04:01:01;;;;;;;12.80;9.05;;;;;;;17.61;77.01;94665.03;5131612;27;20354;-78
2022/08/24 04:03:27;;;;;;;14.65;9.45;;;;;;;17.68;76.94;94669.56;5132444;27;20039;-79
2022/08/24 04:05:52;;;;;;;13.70;8.88;;;;;;;17.95;76.65;94700.63;5120921;27;20023;-79
2022/08/24 04:08:19;;;;;;;12.30;8.43;;;;;;;17.59;76.87;94647.81;5133742;27;20469;-79
2022/08/24 04:10:45;;;;;;;13.75;8.55;;;;;;;17.68;76.92;94662.50;5133456;27;20012;-79
2022/08/24 04:13:11;;;;;;;13.55;8.68;;;;;;;17.60;77.17;94649.44;5133879;27;20103;-79
2022/08/24 04:15:40;;;;;;;10.95;8.45;;;;;;;17.94;76.86;94701.63;5115521;27;20031;-78
2022/08/24 04:18:05;;;;;;;10.27;8.15;;;;;;;17.67;76.58;94660.88;5111158;27;20019;-79
2022/08/24 04:20:32;;;;;;;9.73;7.65;;;;;;;17.61;77.03;94653.72;5115131;27;20027;-79
2022/08/24 04:22:57;;;;;;;8.32;7.43;;;;;;;17.70;77.00;94660.53;5115117;27;20312;-79
2022/08/24 04:25:23;;;;;;;9.18;7.00;;;;;;;17.70;76.50;94655.28;5124471;27;20034;-79
2022/08/24 04:27:49;;;;;;;13.75;7.43;;;;;;;17.73;76.90;94664.63;5133018;27;20031;-79
2022/08/24 04:30:14;;;;;;;8.10;6.47;;;;;;;18.02;76.99;94706.00;5097679;27;20042;-80
2022/08/24 04:32:40;;;;;;;11.15;6.60;;;;;;;18.08;76.77;94711.38;5131966;27;20090;-79
2022/08/24 04:35:06;;;;;;;10.70;6.85;;;;;;;17.74;76.63;94656.56;5114595;27;20063;-80
2022/08/24 04:37:32;;;;;;;8.98;6.70;;;;;;;18.13;76.49;94715.28;5116319;27;20023;-78
2022/08/24 04:39:57;;;;;;;8.38;6.57;;;;;;;18.14;76.75;94715.13;5131331;27;20386;-79
2022/08/24 04:42:23;;;;;;;8.02;7.03;;;;;;;18.12;77.12;94714.47;5128110;27;20410;-78
2022/08/24 04:44:49;;;;;;;7.65;6.20;;;;;;;18.17;77.09;94719.22;5126176;27;20075;-80
2022/08/24 04:47:14;;;;;;;8.32;6.50;;;;;;;18.18;77.34;94713.75;5115923;27;20031;-79
2022/08/24 04:49:40;;;;;;;7.50;6.72;;;;;;;18.22;77.28;94717.69;5124725;27;20038;-79
2022/08/24 04:52:07;;;;;;;12.85;6.70;;;;;;;18.23;77.28;94711.41;5127008;27;20027;-79
2022/08/24 04:54:33;;;;;;;8.38;6.43;;;;;;;18.24;77.43;94710.41;5112686;27;20031;-79
2022/08/24 04:56:58;;;;;;;7.78;6.97;;;;;;;18.04;77.44;94680.34;5131931;27;20092;-79
2022/08/24 04:59:23;;;;;;;8.98;6.40;;;;;;;18.17;77.67;94682.41;5112780;27;20465;-79
2022/08/24 05:01:49;;;;;;;8.02;5.95;;;;;;;18.41;77.62;94715.53;5112424;27;20051;-79
2022/08/24 05:04:14;;;;;;;7.93;6.13;;;;;;;18.42;77.02;94704.88;5095333;27;20030;-79
2022/08/24 05:06:40;;;;;;;8.85;5.93;;;;;;;18.43;77.18;94709.13;5094838;27;20107;-79
2022/08/24 05:09:05;;;;;;;8.52;6.32;;;;;;;18.50;77.51;94703.97;5112570;27;20031;-79
2022/08/24 05:11:31;;;;;;;6.57;5.70;;;;;;;18.59;77.46;94704.72;5112467;27;20031;-79
2022/08/24 05:13:57;;;;;;;7.18;5.75;;;;;;;18.61;77.03;94693.03;5095616;27;20404;-79
2022/08/24 05:16:22;;;;;;;10.23;5.88;;;;;;;18.69;77.14;94700.00;5097385;27;20099;-79
2022/08/24 05:18:48;;;;;;;6.93;5.53;;;;;;;18.74;76.81;94698.50;5097289;27;20023;-79
2022/08/24 05:21:15;;;;;;;9.23;5.65;;;;;;;18.84;76.57;94700.88;5097384;27;20041;-79
2022/08/24 05:23:41;;;;;;;6.35;5.40;;;;;;;18.93;76.46;94698.97;5114645;27;20039;-79
2022/08/24 05:26:09;;;;;;;5.82;4.93;;;;;;;18.96;75.26;94694.16;5114545;27;20079;-79
2022/08/24 05:28:35;;;;;;;6.28;5.68;;;;;;;19.07;75.07;94700.78;5097671;27;20039;-79
2022/08/24 05:31:07;;;;;;;7.95;5.38;;;;;;;19.18;75.23;94699.50;5114138;27;20047;-79
2022/08/24 05:33:33;;;;;;;7.75;5.43;;;;;;;19.23;75.61;94702.41;5097166;27;20088;-79
2022/08/24 05:35:59;;;;;;;9.18;7.35;;;;;;;19.32;76.20;94697.88;5080052;27;20477;-79
2022/08/24 05:38:24;;;;;;;7.55;5.65;;;;;;;19.40;75.51;94689.88;5097279;27;20412;-81
2022/08/24 05:40:50;;;;;;;5.90;5.18;;;;;;;19.48;75.50;94691.59;5080272;27;20493;-81
2022/08/24 05:43:15;;;;;;;6.68;5.25;;;;;;;19.52;74.34;94690.19;5097262;27;20119;-81
2022/08/24 05:45:43;;;;;;;6.45;4.88;;;;;;;19.48;75.21;94675.78;5080189;27;20027;-81
2022/08/24 05:48:08;;;;;;;6.47;4.70;;;;;;;19.60;75.02;94692.72;5093915;27;20028;-81
2022/08/24 05:50:34;;;;;;;10.05;5.28;;;;;;;19.62;74.17;94688.91;5098591;27;20061;-81
2022/08/24 05:52:59;;;;;;;8.70;5.20;;;;;;;19.39;74.10;94646.09;5095514;27;20678;-82
2022/08/24 05:55:25;;;;;;;5.30;4.80;;;;;;;19.76;72.92;94697.81;5066482;27;20483;-78
2022/08/24 05:57:51;;;;;;;7.65;4.65;;;;;;;19.81;73.86;94692.00;5079371;28;20405;-81
2022/08/24 06:00:17;;;;;;;5.00;4.50;;;;;;;19.87;73.68;94691.25;5126337;27;20142;-81
2022/08/24 06:02:43;;;;;;;7.65;5.10;;;;;;;19.87;74.07;94685.97;5130403;27;20039;-80
2022/08/24 06:05:09;;;;;;;5.40;4.70;;;;;;;19.72;72.87;94664.09;5091887;28;20035;-81
2022/08/24 06:07:34;;;;;;;6.30;4.88;;;;;;;19.90;74.70;94674.25;5103169;27;20034;-81
2022/08/24 06:10:00;;;;;;;5.22;4.72;;;;;;;20.07;75.16;94697.50;5092123;27;20031;-81
2022/08/24 06:12:27;;;;;;;5.25;4.30;;;;;;;19.89;74.97;94646.22;5076523;27;20055;-81
2022/08/24 06:14:53;;;;;;;7.65;4.70;;;;;;;20.25;74.41;94698.88;5119032;27;20578;-81
2022/08/24 06:17:19;;;;;;;7.45;5.03;;;;;;;20.26;72.51;94684.72;5113066;28;20058;-81
2022/08/24 06:19:44;;;;;;;5.65;4.80;;;;;;;20.34;72.29;94678.47;5107078;27;20050;-81
2022/08/24 06:22:09;;;;;;;5.22;4.47;;;;;;;20.33;72.47;94661.03;5126205;28;20493;-81
2022/08/24 06:27:24;;;;;;;6.63;4.72;;;;;;;20.67;71.59;94684.03;5130629;28;20050;-81
2022/08/24 06:29:51;;;;;;;5.20;4.70;;;;;;;20.77;69.26;94681.88;5131261;27;20407;-81
2022/08/24 06:32:16;;;;;;;6.00;4.95;;;;;;;20.66;70.48;94659.47;5112865;28;20071;-81
2022/08/24 06:34:42;;;;;;;5.10;4.43;;;;;;;20.89;65.80;94688.25;5111379;27;20020;-81
2022/08/24 06:37:07;;;;;;;5.55;4.90;;;;;;;20.99;68.38;94695.84;5119725;28;20035;-81
2022/08/24 06:39:33;;;;;;;7.75;5.00;;;;;;;20.92;69.31;94663.28;5129544;28;20024;-85
2022/08/24 06:41:59;;;;;;;5.47;4.53;;;;;;;20.86;68.56;94648.22;5110153;28;20488;-85
2022/08/24 06:44:24;;;;;;;5.82;4.95;;;;;;;20.97;68.73;94656.41;5118890;28;20029;-84
2022/08/24 06:46:51;;;;;;;5.32;4.65;;;;;;;21.24;65.75;94677.69;5088369;27;20462;-84
2022/08/24 06:49:17;;;;;;;7.60;4.55;;;;;;;21.23;64.55;94664.66;5131012;28;20039;-82
2022/08/24 06:51:43;;;;;;;6.13;4.88;;;;;;;21.48;63.51;94704.63;5130003;27;20112;-82
2022/08/24 06:54:08;;;;;;;5.32;4.60;;;;;;;21.54;66.05;94706.50;5106201;28;20477;-82
2022/08/24 06:56:36;;;;;;;6.85;4.50;;;;;;;21.34;63.46;94664.94;5129912;28;20461;-82
2022/08/24 06:59:02;;;;;;;5.70;4.63;;;;;;;21.69;62.97;94707.16;5128298;27;20074;-79
2022/08/24 07:01:28;;;;;;;7.13;4.78;;;;;;;21.74;63.13;94710.03;5101000;28;20035;-79
2022/08/24 07:03:54;;;;;;;5.95;4.90;;;;;;;21.89;62.82;94711.69;5128614;28;20034;-79
2022/08/24 07:06:20;;;;;;;10.32;5.25;;;;;;;21.97;64.31;94700.94;5108126;28;20068;-78
2022/08/24 07:08:45;;;;;;;5.45;4.65;;;;;;;22.09;61.16;94712.56;5119641;28;20036;-79
2022/08/24 07:11:13;;;;;;;5.75;4.75;;;;;;;22.21;60.71;94710.19;5122964;28;20034;-80
2022/08/24 07:13:39;;;;;;;10.10;4.63;;;;;;;22.06;62.21;94676.78;5111446;28;20036;-80
2022/08/24 07:16:05;;;;;;;8.95;4.80;;;;;;;22.41;60.98;94726.09;5095451;28;20027;-79
2022/08/24 07:18:30;;;;;;;6.65;4.80;;;;;;;22.49;60.81;94731.19;5095602;28;20073;-81
2022/08/24 07:20:58;;;;;;;6.07;5.30;;;;;;;22.49;63.76;94731.19;5116023;27;20104;-81
2022/08/24 07:23:24;;;;;;;8.32;5.38;;;;;;;22.57;59.90;94728.34;5097469;27;20038;-80
2022/08/24 07:25:50;;;;;;;7.35;5.15;;;;;;;22.60;60.76;94727.94;5106087;27;20115;-81
2022/08/24 07:28:15;;;;;;;5.53;5.03;;;;;;;22.47;60.48;94682.94;5132683;27;20035;-81
2022/08/24 07:30:41;;;;;;;6.72;6.00;;;;;;;22.84;61.69;94721.19;5130703;27;20032;-79
2022/08/24 07:33:07;;;;;;;6.55;5.40;;;;;;;22.92;60.38;94713.03;5114720;28;20120;-81
2022/08/24 07:35:33;;;;;;;6.03;4.95;;;;;;;22.98;58.98;94711.41;5112641;28;20054;-79
2022/08/24 07:37:59;;;;;;;7.28;5.20;;;;;;;23.10;58.84;94723.03;5114631;27;20061;-80
2022/08/24 07:40:26;;;;;;;5.70;4.72;;;;;;;23.17;59.12;94721.16;5132950;27;20026;-80
2022/08/24 07:42:52;;;;;;;7.13;4.72;;;;;;;23.27;58.21;94726.06;5133611;27;20041;-81
2022/08/24 07:45:18;;;;;;;9.82;4.95;;;;;;;23.25;57.43;94703.44;5097091;27;20027;-80
2022/08/24 07:47:44;;;;;;;5.60;4.50;;;;;;;23.43;58.42;94719.50;5133006;27;20035;-80
2022/08/24 07:50:10;;;;;;;8.75;5.57;;;;;;;23.50;58.46;94717.63;5133089;27;20027;-79
2022/08/24 07:52:35;;;;;;;7.25;4.70;;;;;;;23.58;58.66;94712.09;5134749;27;20035;-79
2022/08/24 07:55:01;;;;;;;9.68;5.47;;;;;;;23.57;58.11;94699.88;5134180;27;20308;-78
2022/08/24 07:57:26;;;;;;;6.25;4.65;;;;;;;23.59;55.56;94703.09;5134370;27;20031;-78
2022/08/24 07:59:52;;;;;;;7.60;4.75;;;;;;;23.70;57.45;94698.16;5134121;27;20502;-79
2022/08/24 08:02:17;;;;;;;5.38;4.20;;;;;;;23.71;55.31;94686.56;5116269;27;20031;-81
2022/08/24 08:04:43;;;;;;;5.78;4.70;;;;;;;23.80;54.30;94693.28;5098729;27;20026;-83
2022/08/24 08:07:08;;;;;;;9.23;4.60;;;;;;;23.77;54.63;94688.41;5133703;27;20023;-83
2022/08/24 08:09:38;;;;;;;5.78;4.30;;;;;;;23.87;54.64;94688.72;5078333;28;20321;-83
2022/08/24 08:12:04;;;;;;;6.00;3.97;;;;;;;24.03;53.81;94688.22;5115095;27;20172;-81
2022/08/24 08:14:29;;;;;;;5.20;4.28;;;;;;;24.17;54.84;94685.50;5134651;27;20019;-79
2022/08/24 08:16:55;;;;;;;6.00;4.57;;;;;;;24.20;53.60;94687.72;5123591;27;20512;-82
2022/08/24 08:19:20;;;;;;;6.57;4.40;;;;;;;24.31;52.43;94685.19;5111196;27;20483;-80
2022/08/24 08:24:49;;;;;;;9.43;5.60;;;;;;;24.55;53.48;94690.78;5036979;28;20442;-79
2022/08/24 08:27:15;;;;;;;6.82;4.30;;;;;;;24.65;51.98;94687.63;5108325;27;20039;-80
2022/08/24 08:29:41;;;;;;;4.88;3.33;;;;;;;24.73;50.12;94679.38;5093584;27;20083;-81
2022/08/24 08:32:08;;;;;;;6.50;3.75;;;;;;;24.78;49.51;94676.88;5112776;27;20035;-82
2022/08/24 08:34:33;;;;;;;6.55;3.55;;;;;;;24.93;50.35;94682.69;5093831;27;20572;-80
2022/08/24 08:36:59;;;;;;;7.57;3.80;;;;;;;24.86;51.60;94658.03;5133284;27;20058;-79
2022/08/24 08:39:25;;;;;;;4.82;3.63;;;;;;;24.97;50.93;94659.94;5114200;27;20066;-79
2022/08/24 08:42:15;;;;;;;6.72;4.10;;;;;;;25.16;49.54;94681.25;5133229;27;20062;-80
2022/08/24 08:44:51;;;;;;;5.00;3.92;;;;;;;25.20;49.75;94666.50;5123256;27;20059;-80
2022/08/24 08:47:48;;;;;;;5.45;3.50;;;;;;;25.26;48.98;94678.88;5108786;27;20051;-80
2022/08/24 08:50:16;;;;;;;6.70;3.90;;;;;;;25.26;50.14;94686.06;5124130;27;20042;-83
2022/08/24 08:53:16;;;;;;;6.07;4.05;;;;;;;25.33;50.61;94698.25;5132328;27;20031;-79
2022/08/24 08:55:47;;;;;;;5.45;3.60;;;;;;;25.39;50.14;94691.22;5110479;27;20364;-79
2022/08/24 08:58:18;;;;;;;6.68;4.38;;;;;;;25.50;50.06;94692.34;5112886;27;20031;-77
2022/08/24 09:00:48;;;;;;;4.55;4.10;;;;;;;25.58;49.48;94700.00;5130737;27;20043;-77
2022/08/24 09:03:28;;;;;;;7.80;3.85;;;;;;;25.66;48.58;94699.72;5109166;27;20023;-80
2022/08/24 09:06:25;;;;;;;7.57;3.90;;;;;;;25.58;47.52;94678.75;5128852;27;20411;-77
2022/08/24 09:09:05;;;;;;;6.05;4.00;;;;;;;25.80;49.06;94695.03;5110439;27;20508;-77
2022/08/24 09:11:58;;;;;;;4.97;3.88;;;;;;;25.82;48.09;94696.41;5127778;27;20496;-77
2022/08/24 09:14:51;;;;;;;4.50;3.67;;;;;;;25.85;48.25;94695.19;5130369;27;20031;-76
2022/08/24 09:17:54;;;;;;;4.28;3.60;;;;;;;25.95;47.42;94700.78;5119293;27;20038;-76
2022/08/24 09:20:41;;;;;;;5.05;4.15;;;;;;;25.97;45.81;94693.41;5129360;27;20042;-77
2022/08/24 09:23:09;;;;;;;5.47;4.13;;;;;;;25.91;46.35;94690.81;5129681;27;20038;-77
2022/08/24 09:25:39;;;;;;;5.55;3.80;;;;;;;25.90;46.92;94671.38;5131307;27;20050;-77
2022/08/24 09:28:04;;;;;;;;;;;;;;;26.03;47.30;94681.84;5110463;27;20031;-77
2022/08/24 09:30:37;;;;;;;4.13;3.70;;;;;;;26.08;47.05;94679.34;5123148;27;19915;-78
2022/08/24 09:33:08;;;;;;;4.80;3.80;;;;;;;26.22;46.35;94677.28;5088334;27;20304;-76
2022/08/24 09:35:58;;;;;;;4.95;3.85;;;;;;;26.21;45.67;94670.31;5120353;27;20102;-77
2022/08/24 09:38:53;;;;;;;4.97;3.88;;;;;;;26.34;46.06;94677.31;5096633;27;20034;-77
2022/08/24 09:41:34;;;;;;;6.60;3.72;;;;;;;26.42;45.58;94662.88;5124653;27;20397;-77
2022/08/24 09:44:02;;;;;;;5.25;3.40;;;;;;;26.48;46.16;94667.28;5106405;28;20041;-77
2022/08/24 09:46:35;;;;;;;5.35;3.60;;;;;;;26.57;46.03;94665.91;5129917;27;20106;-77
2022/08/24 09:49:25;;;;;;;5.28;3.55;;;;;;;26.58;44.64;94659.56;5089551;28;20027;-77
2022/08/24 09:52:12;;;;;;;5.60;3.40;;;;;;;26.64;43.08;94650.66;5124820;27;20404;-78
2022/08/24 09:54:38;;;;;;;5.00;3.40;;;;;;;26.51;43.43;94645.53;5112787;27;20035;-76
2022/08/24 09:57:34;;;;;;;3.92;3.42;;;;;;;26.45;42.30;94635.78;5128590;27;20079;-77
2022/08/24 10:00:12;;;;;;;7.63;3.20;;;;;;;26.47;44.16;94631.84;5115750;27;20042;-77
2022/08/24 10:02:53;;;;;;;7.78;3.60;;;;;;;26.42;43.14;94636.25;5128942;27;20035;-77
2022/08/24 10:05:41;;;;;;;5.15;3.10;;;;;;;26.51;43.80;94622.38;5125738;27;20031;-78
2022/08/24 10:08:34;;;;;;;4.05;3.13;;;;;;;26.60;43.39;94617.50;5102934;27;20043;-77
2022/08/24 10:11:06;;;;;;;4.47;3.25;;;;;;;26.67;44.00;94618.22;5130033;27;20038;-77
2022/08/24 10:13:46;;;;;;;5.90;3.50;;;;;;;26.78;43.76;94626.44;5092535;27;20043;-77
2022/08/24 10:16:12;;;;;;;5.10;3.28;;;;;;;26.79;42.64;94614.75;5093461;28;20024;-77
2022/08/24 10:19:05;;;;;;;4.25;3.80;;;;;;;26.67;43.07;94617.41;5131886;28;20038;-77
2022/08/24 10:21:55;;;;;;;4.45;3.63;;;;;;;26.68;43.69;94619.81;5097165;28;20118;-78
2022/08/24 10:24:58;;;;;;;4.80;3.90;;;;;;;26.59;43.95;94621.22;5110817;28;20034;-78
2022/08/24 10:27:48;;;;;;;5.35;3.80;;;;;;;26.55;45.11;94620.09;5121622;27;20432;-78
2022/08/24 10:30:32;;;;;;;5.53;4.53;;;;;;;26.63;44.94;94616.25;5107499;27;20034;-77
2022/08/24 10:33:12;;;;;;;4.60;4.10;;;;;;;26.70;44.91;94615.09;5129460;27;20072;-77
2022/08/24 10:35:59;;;;;;;5.72;4.82;;;;;;;26.75;44.24;94611.75;5111726;28;20111;-77
2022/08/24 10:41:22;;;;;;;6.40;4.80;;;;;;;26.72;44.34;94617.53;5114147;28;20069;-80
2022/08/24 10:44:00;;;;;;;4.80;3.83;;;;;;;26.81;43.92;94620.66;5109839;28;20038;-78
2022/08/24 10:46:44;;;;;;;5.70;4.47;;;;;;;26.63;44.09;94603.72;5119747;28;20511;-79
2022/08/24 10:49:47;;;;;;;10.65;4.75;;;;;;;26.74;43.72;94612.75;5094709;28;20027;-79
2022/08/24 10:52:29;;;;;;;5.53;4.28;;;;;;;26.63;43.46;94598.41;5111109;28;20062;-78
2022/08/24 10:54:54;;;;;;;7.10;4.50;;;;;;;26.61;44.41;94613.81;5094415;27;20038;-75
2022/08/24 10:57:38;;;;;;;7.80;4.22;;;;;;;26.60;44.77;94614.03;5113453;27;20054;-77
2022/08/24 11:00:15;;;;;;;5.60;4.20;;;;;;;26.67;44.51;94609.44;5083485;28;20051;-77
2022/08/24 11:02:42;;;;;;;5.45;4.47;;;;;;;26.69;44.41;94602.81;5075621;28;20028;-77
2022/08/24 11:05:09;;;;;;;5.25;4.40;;;;;;;26.74;45.00;94608.28;5107708;27;20103;-77
2022/08/24 11:07:35;;;;;;;7.53;4.60;;;;;;;26.70;44.68;94601.78;5091477;28;20036;-77
2022/08/24 11:10:05;;;;;;;7.65;4.13;;;;;;;26.57;43.87;94591.34;5069822;28;20057;-77
2022/08/24 11:12:30;;;;;;;4.82;4.05;;;;;;;26.64;45.32;94602.72;5088946;28;20032;-76
2022/08/24 11:15:09;;;;;;;7.28;5.43;;;;;;;26.52;45.96;94586.72;5110474;28;20035;-76
2022/08/24 11:17:35;;;;;;;6.28;4.95;;;;;;;26.62;45.14;94606.63;5107514;27;20031;-77
2022/08/24 11:20:01;;;;;;;6.43;4.25;;;;;;;26.48;45.21;94592.72;5105020;28;20065;-77
2022/08/24 11:22:39;;;;;;;6.22;4.05;;;;;;;26.54;44.89;94596.34;5105210;28;20588;-77
2022/08/24 11:25:27;;;;;;;8.38;4.20;;;;;;;26.54;45.85;94593.66;5110402;28;20343;-78
2022/08/24 11:27:58;;;;;;;5.45;4.10;;;;;;;26.50;44.99;94593.28;5107353;27;20119;-79
2022/08/24 11:30:26;;;;;;;7.95;3.97;;;;;;;26.65;44.24;94590.19;5089708;28;20034;-79
2022/08/24 11:32:59;;;;;;;7.07;4.07;;;;;;;26.64;46.13;94591.25;5090155;28;20502;-78
2022/08/24 11:35:35;;;;;;;8.10;4.32;;;;;;;26.62;44.84;94588.00;5105854;27;20039;-77
2022/08/24 11:38:14;;;;;;;4.68;3.90;;;;;;;26.54;44.95;94569.69;5103423;28;20027;-76
2022/08/24 11:40:42;;;;;;;4.78;3.92;;;;;;;26.60;45.71;94590.88;5106515;28;20073;-79
2022/08/24 11:43:15;;;;;;;5.90;3.97;;;;;;;26.65;44.39;94583.00;5105646;28;20031;-77
2022/08/24 11:46:05;;;;;;;8.90;4.00;;;;;;;26.62;45.97;94582.66;5107612;28;20096;-77
2022/08/24 11:48:36;;;;;;;8.40;4.18;;;;;;;26.58;46.73;94576.16;5104803;28;20027;-77
2022/08/24 11:51:34;;;;;;;6.38;4.07;;;;;;;26.63;46.25;94582.41;5109482;28;20096;-77
2022/08/24 11:54:02;;;;;;;6.00;3.97;;;;;;;26.65;46.26;94584.88;5103607;28;20528;-77